TimeEST,TemperatureF,Dew PointF,Humidity,Sea Level PressureIn,VisibilityMPH,Wind Direction,Wind SpeedMPH,Gust SpeedMPH,PrecipitationIn,Events,Conditions,WindDirDegrees,DateUTC
12:15 AM,37.4,33.8,87,30.06,10.0,NW,13.8,18.4,N/A,,Overcast,320,2013-12-24 05:15:00
12:35 AM,37.4,30.2,75,30.08,10.0,NW,10.4,18.4,N/A,,Overcast,320,2013-12-24 05:35:00
12:55 AM,37.4,30.2,75,30.06,10.0,NNW,12.7,-,N/A,,Overcast,330,2013-12-24 05:55:00
1:15 AM,37.4,30.2,75,30.10,10.0,WNW,9.2,-,N/A,,Overcast,300,2013-12-24 06:15:00
1:35 AM,37.4,30.2,75,30.09,10.0,NW,10.4,-,N/A,,Overcast,320,2013-12-24 06:35:00
1:55 AM,35.6,30.2,81,30.10,10.0,NW,8.1,-,N/A,,Overcast,320,2013-12-24 06:55:00
2:15 AM,35.6,30.2,81,30.09,10.0,NNW,11.5,17.3,N/A,,Overcast,330,2013-12-24 07:15:00
2:35 AM,35.6,28.4,75,30.11,10.0,NW,13.8,23.0,N/A,,Mostly Cloudy,320,2013-12-24 07:35:00
2:55 AM,35.6,28.4,75,30.10,10.0,NNW,11.5,-,N/A,,Partly Cloudy,340,2013-12-24 07:55:00
3:15 AM,35.6,28.4,75,30.10,10.0,NNW,12.7,17.3,N/A,,Scattered Clouds,340,2013-12-24 08:15:00
3:35 AM,35.6,26.6,70,30.09,10.0,NNW,11.5,-,N/A,,Mostly Cloudy,340,2013-12-24 08:35:00
3:55 AM,33.8,28.4,81,30.10,10.0,NNW,6.9,-,N/A,,Mostly Cloudy,340,2013-12-24 08:55:00
4:15 AM,33.8,28.4,81,30.09,10.0,NNW,8.1,-,N/A,,Scattered Clouds,330,2013-12-24 09:15:00
4:35 AM,33.8,26.6,75,30.09,10.0,NNW,8.1,-,N/A,,Partly Cloudy,330,2013-12-24 09:35:00
4:55 AM,33.8,26.6,75,30.09,10.0,NNW,6.9,-,N/A,,Partly Cloudy,340,2013-12-24 09:55:00
5:15 AM,33.8,24.8,70,30.10,10.0,North,10.4,-,N/A,,Clear,350,2013-12-24 10:15:00
5:35 AM,33.8,24.8,70,30.11,10.0,North,10.4,-,N/A,,Clear,350,2013-12-24 10:35:00
5:55 AM,33.8,24.8,70,30.09,10.0,North,11.5,-,N/A,,Clear,350,2013-12-24 10:55:00
6:15 AM,33.8,23.0,65,30.10,10.0,NNW,10.4,-,N/A,,Clear,330,2013-12-24 11:15:00
6:35 AM,32.0,21.2,64,30.10,10.0,NNW,9.2,-,N/A,,Clear,340,2013-12-24 11:35:00
6:55 AM,32.0,21.2,64,30.12,10.0,NNW,6.9,-,N/A,,Clear,340,2013-12-24 11:55:00
7:15 AM,32.0,21.2,64,30.13,10.0,NNW,8.1,-,N/A,,Clear,330,2013-12-24 12:15:00
7:35 AM,30.2,21.2,69,30.13,10.0,NNW,8.1,-,N/A,,Clear,330,2013-12-24 12:35:00
7:55 AM,30.2,21.2,69,30.10,10.0,NNW,12.7,-,N/A,,Clear,340,2013-12-24 12:55:00
8:15 AM,30.2,21.2,69,30.09,10.0,NNW,11.5,-,N/A,,Clear,340,2013-12-24 13:15:00
8:35 AM,30.2,21.2,69,30.12,10.0,NW,8.1,-,N/A,,Clear,320,2013-12-24 13:35:00
8:55 AM,30.2,19.4,64,30.14,10.0,NW,9.2,-,N/A,,Clear,320,2013-12-24 13:55:00
9:15 AM,30.2,19.4,64,30.14,10.0,NNW,10.4,-,N/A,,Clear,330,2013-12-24 14:15:00
9:35 AM,30.2,19.4,64,30.13,10.0,NNW,8.1,-,N/A,,Clear,340,2013-12-24 14:35:00
9:55 AM,30.2,17.6,60,30.08,10.0,North,12.7,-,N/A,,Clear,350,2013-12-24 14:55:00
10:15 AM,30.2,17.6,60,30.08,10.0,NNW,10.4,-,N/A,,Clear,330,2013-12-24 15:15:00
10:35 AM,30.2,17.6,60,30.10,10.0,NNW,9.2,16.1,N/A,,Clear,340,2013-12-24 15:35:00
10:55 AM,30.2,17.6,60,30.10,10.0,NNW,5.8,-,N/A,,Clear,340,2013-12-24 15:55:00
11:15 AM,30.2,17.6,60,30.07,10.0,NNE,6.9,-,N/A,,Clear,20,2013-12-24 16:15:00
11:35 AM,32.0,17.6,55,30.09,10.0,North,10.4,-,N/A,,Clear,350,2013-12-24 16:35:00
11:55 AM,32.0,17.6,55,30.07,10.0,NNW,9.2,-,N/A,,Clear,340,2013-12-24 16:55:00
12:15 PM,32.0,17.6,55,30.07,10.0,North,11.5,-,N/A,,Clear,350,2013-12-24 17:15:00
12:35 PM,32.0,15.8,51,30.06,10.0,NNW,13.8,-,N/A,,Clear,330,2013-12-24 17:35:00
12:55 PM,33.8,17.6,52,30.04,10.0,NW,11.5,16.1,N/A,,Clear,320,2013-12-24 17:55:00
1:15 PM,33.8,15.8,48,30.04,10.0,North,8.1,18.4,N/A,,Clear,350,2013-12-24 18:15:00
1:35 PM,33.8,17.6,52,30.04,10.0,North,12.7,-,N/A,,Clear,350,2013-12-24 18:35:00
1:55 PM,33.8,17.6,52,30.04,10.0,NW,11.5,16.1,N/A,,Clear,320,2013-12-24 18:55:00
2:15 PM,35.6,15.8,44,30.04,10.0,North,8.1,-,N/A,,Clear,350,2013-12-24 19:15:00
2:35 PM,35.6,15.8,44,30.05,10.0,North,11.5,-,N/A,,Clear,350,2013-12-24 19:35:00
2:55 PM,33.8,14.0,44,30.06,10.0,North,12.7,17.3,N/A,,Clear,350,2013-12-24 19:55:00
3:15 PM,33.8,14.0,44,30.06,10.0,North,8.1,-,N/A,,Mostly Cloudy,360,2013-12-24 20:15:00
3:35 PM,32.0,12.2,44,30.06,10.0,North,8.1,-,N/A,,Overcast,350,2013-12-24 20:35:00
3:55 PM,32.0,14.0,48,30.07,10.0,North,4.6,-,N/A,,Mostly Cloudy,350,2013-12-24 20:55:00
4:15 PM,30.2,14.0,51,30.08,10.0,North,5.8,-,N/A,,Mostly Cloudy,350,2013-12-24 21:15:00
4:35 PM,30.2,14.0,51,30.08,10.0,NNW,8.1,-,N/A,,Mostly Cloudy,330,2013-12-24 21:35:00
4:55 PM,30.2,15.8,55,30.09,10.0,NW,5.8,-,N/A,,Mostly Cloudy,320,2013-12-24 21:55:00
5:15 PM,30.2,15.8,55,30.10,10.0,NW,4.6,-,N/A,,Overcast,320,2013-12-24 22:15:00
5:35 PM,30.2,14.0,51,30.11,10.0,NNW,10.4,-,N/A,,Mostly Cloudy,330,2013-12-24 22:35:00
5:55 PM,30.2,14.0,51,30.12,10.0,WNW,11.5,17.3,N/A,,Mostly Cloudy,300,2013-12-24 22:55:00
6:15 PM,30.2,15.8,55,30.13,10.0,NW,8.1,-,N/A,,Overcast,320,2013-12-24 23:15:00
6:35 PM,28.4,15.8,59,30.14,10.0,NW,3.5,-,N/A,,Overcast,310,2013-12-24 23:35:00
6:55 PM,30.2,17.6,60,30.14,10.0,NW,9.2,-,N/A,,Overcast,320,2013-12-24 23:55:00
7:15 PM,30.2,15.8,55,30.15,10.0,NW,4.6,-,N/A,,Overcast,320,2013-12-25 00:15:00
7:35 PM,28.4,15.8,59,30.15,10.0,NW,3.5,-,N/A,,Overcast,320,2013-12-25 00:35:00
7:55 PM,30.2,15.8,55,30.15,10.0,NW,5.8,-,N/A,,Overcast,310,2013-12-25 00:55:00
8:15 PM,28.4,15.8,59,30.16,10.0,WNW,10.4,-,N/A,,Overcast,300,2013-12-25 01:15:00
8:35 PM,28.4,15.8,59,30.17,10.0,NW,8.1,-,N/A,,Partly Cloudy,320,2013-12-25 01:35:00
8:55 PM,28.4,15.8,59,30.17,10.0,NW,5.8,-,N/A,,Mostly Cloudy,320,2013-12-25 01:55:00
9:15 PM,28.4,17.6,64,30.18,10.0,West,5.8,-,N/A,,Overcast,280,2013-12-25 02:15:00
9:35 PM,28.4,17.6,64,30.18,10.0,WNW,5.8,-,N/A,,Overcast,290,2013-12-25 02:35:00
9:55 PM,26.6,15.8,64,30.18,10.0,West,6.9,-,N/A,,Overcast,280,2013-12-25 02:55:00
10:15 PM,26.6,17.6,69,30.19,10.0,West,9.2,-,N/A,,Mostly Cloudy,280,2013-12-25 03:15:00
10:35 PM,26.6,15.8,64,30.19,10.0,WNW,10.4,16.1,N/A,,Partly Cloudy,290,2013-12-25 03:35:00
10:55 PM,26.6,12.2,55,30.19,10.0,West,9.2,-,N/A,,Clear,280,2013-12-25 03:55:00
11:15 PM,26.6,12.2,55,30.20,10.0,WNW,9.2,17.3,N/A,,Clear,290,2013-12-25 04:15:00
11:35 PM,26.6,10.4,51,30.20,10.0,WNW,12.7,18.4,N/A,,Clear,290,2013-12-25 04:35:00
11:55 PM,24.8,8.6,50,30.20,10.0,WNW,9.2,17.3,N/A,,Partly Cloudy,300,2013-12-25 04:55:00